Ajo, AZ (85321)

5:55 PM MST on March 27, 2017 (GMT -0700)
KAZAJO2 | | Change Station

Elev 1739 ft 32.38 °N, 112.86 °W | Updated 33 seconds ago

Clear
Clear
74.9 °F
Feels Like 77 °F
N
11.0
Wind Variable Wind from South
Gusts 12.0 mph

Today
High -- | Low -- °F
--% Chance of Precip.
Yesterday
High -- | Low -- °F
Precip. -- in
Pressure 29.71 in
Visibility 10.0 miles
Clouds Few 14000 ft
Heat Index 77 °F
Dew Point 39 °F
Humidity 27%
Rainfall 0.00 in
Snow Depth Not available.
6:25 AM 6:48 PM
Waning Crescent, 0% visible
SPECI KGXF 280019Z 27016G22KT 10SM FEW140 26/03 A2971 RMK AO2A WSHFT 06
Pressure 29.71 in
Visibility 10.0 miles
Clouds Few 14000 ft
Heat Index 77 °F
Dew Point 39 °F
Humidity 27%
Rainfall 0.00 in
Snow Depth Not available.
6:25 AM 6:48 PM
Waning Crescent, 0% visible
SPECI KGXF 280019Z 27016G22KT 10SM FEW140 26/03 A2971 RMK AO2A WSHFT 06

Get Severe Weather Alerts

Thanks for signing up!

Be on the lookout for a verification email in your inbox.

You'll start receiving the daily forecast at 8 AM.

×

10-Day Weather Forecast

Almanac

Astronomy

Mar. 27, 2017 Rise Set
Actual Time
Civil Twilight
Nautical Twilight
Astronomical Twilight
Moon
Length of Visible Light
Length of Day
Tomorrow will be .
, % of the Moon is Illuminated

Today's Extremes

State Highs State Lows

Community

WunderPhotos

Upload Photos

1,962,540 photos uploaded!

WunderBlog® & News

Nearby

Air Quality

  Air Quality AQ Index Pollutant
Not available.

Snow Depth

Station Depth Elevation

Earthquake Activity

City Distance Mag. Time & Date
Minimum magnitude displayed is 2.5.

Earthquake Activity

City Distance Mag. Time & Date
Minimum magnitude displayed is 2.5.

Coastal Water Temperatures

Place Temperature

Stations

Nearby Weather Stations

Station Location Temp. Windchill Dew Point Humidity Wind Precip. Elev Updated Type
                   

Watches & Warnings

There are currently no watches in effect.